KTOC

Details ICAO KTOC (TOC)
Name TOCCOA RG LETOURNEAU FLD
Region United States
Timezone America/New_York (UTC-4.0)
Plans Departing 5
Arriving 4
Stats Elevation 996 ft / 304 m (AMSL)
Location 34.593333° -83.295800°
Runways 2
Magnetic Variation 6.042° W
Sunrise 2018-05-26 10:25:16 UTC / 2018-05-26 06:25:16 Local
Sunset 2018-05-27 00:38:07 UTC / 2018-05-26 20:38:07 Local
Advertisement - Login to hide

Runways

ID Width Length Bearing (true) Bearing (mag) Surface Threshold Offset Overrun Length
02 100 ft / 30 m 5,010 ft / 1,527 m 20.76° 26.80° Asphalt 0 ft / 0 m 0 ft / 0 m
09 50 ft / 15 m 2,945 ft / 898 m 88.30° 94.34° Asphalt 0 ft / 0 m 0 ft / 0 m
20 100 ft / 30 m 5,010 ft / 1,527 m 200.76° 206.80° Asphalt 0 ft / 0 m 0 ft / 0 m
27 50 ft / 15 m 2,945 ft / 898 m 268.31° 274.35° Asphalt 0 ft / 0 m 0 ft / 0 m

Map

Weather


0- 5 10 15 20 25 30 35+ Temperature / ° C

Clouds and Precipitation
Forecast for 2018-05-26 06:00 UTC. Updated 4 hours ago

Ground ~20,000 ft ~40,000 ft Winds

METAR

KTOC 260835Z AUTO 00000KT 5SM BR OVC010 23/22 A2997 RMK AO2 T02260221

TAF

Not found

Frequencies

Unicom 122.80 MHz CTAF/UNICOM
Warning: Do not use this data for real-world aviation or navigation. No guarantee of current accuracy is given.